sensor_id;sensor_type;location;lat;lon;timestamp;temperature;humidity
21001;DHT22;10658;50.920;12.238;2023-01-13T00:01:39;9.50;99.90
21001;DHT22;10658;50.920;12.238;2023-01-13T00:05:40;9.40;99.90
21001;DHT22;10658;50.920;12.238;2023-01-13T00:09:41;9.40;99.90
21001;DHT22;10658;50.920;12.238;2023-01-13T00:13:43;9.50;99.90
21001;DHT22;10658;50.920;12.238;2023-01-13T00:17:44;9.50;99.90
21001;DHT22;10658;50.920;12.238;2023-01-13T00:21:45;9.40;99.90
21001;DHT22;10658;50.920;12.238;2023-01-13T00:25:46;9.40;99.90
21001;DHT22;10658;50.920;12.238;2023-01-13T00:29:47;9.40;99.90
21001;DHT22;10658;50.920;12.238;2023-01-13T00:33:49;9.40;99.90
21001;DHT22;10658;50.920;12.238;2023-01-13T00:37:51;9.50;99.90
21001;DHT22;10658;50.920;12.238;2023-01-13T00:41:52;9.40;99.90
21001;DHT22;10658;50.920;12.238;2023-01-13T00:46:14;9.40;99.90
21001;DHT22;10658;50.920;12.238;2023-01-13T00:50:15;9.40;99.90
21001;DHT22;10658;50.920;12.238;2023-01-13T00:54:16;9.50;99.90
21001;DHT22;10658;50.920;12.238;2023-01-13T00:58:18;9.50;99.90
21001;DHT22;10658;50.920;12.238;2023-01-13T01:02:19;9.50;99.90
21001;DHT22;10658;50.920;12.238;2023-01-13T01:06:22;9.60;99.90
21001;DHT22;10658;50.920;12.238;2023-01-13T01:10:23;9.60;99.90
21001;DHT22;10658;50.920;12.238;2023-01-13T01:14:24;9.70;99.90
21001;DHT22;10658;50.920;12.238;2023-01-13T01:18:26;9.60;99.90
21001;DHT22;10658;50.920;12.238;2023-01-13T01:22:27;9.60;99.90
21001;DHT22;10658;50.920;12.238;2023-01-13T01:26:29;9.70;99.90
21001;DHT22;10658;50.920;12.238;2023-01-13T01:30:32;9.70;99.90
21001;DHT22;10658;50.920;12.238;2023-01-13T01:34:34;9.70;99.90
21001;DHT22;10658;50.920;12.238;2023-01-13T01:38:36;9.70;99.90
21001;DHT22;10658;50.920;12.238;2023-01-13T01:42:37;9.60;99.90
21001;DHT22;10658;50.920;12.238;2023-01-13T01:46:57;9.70;99.90
21001;DHT22;10658;50.920;12.238;2023-01-13T01:50:58;9.70;99.90
21001;DHT22;10658;50.920;12.238;2023-01-13T01:55:06;9.70;99.90
21001;DHT22;10658;50.920;12.238;2023-01-13T01:59:09;9.70;99.90
21001;DHT22;10658;50.920;12.238;2023-01-13T02:03:10;9.70;99.90
21001;DHT22;10658;50.920;12.238;2023-01-13T02:07:11;9.70;99.90
21001;DHT22;10658;50.920;12.238;2023-01-13T02:11:33;9.60;99.90
21001;DHT22;10658;50.920;12.238;2023-01-13T02:16:06;9.70;99.90
21001;DHT22;10658;50.920;12.238;2023-01-13T02:34:10;9.60;99.90
21001;DHT22;10658;50.920;12.238;2023-01-13T02:38:15;9.70;99.90
21001;DHT22;10658;50.920;12.238;2023-01-13T02:42:39;9.70;99.90
21001;DHT22;10658;50.920;12.238;2023-01-13T02:47:08;9.60;99.90
21001;DHT22;10658;50.920;12.238;2023-01-13T02:51:16;9.70;99.90
21001;DHT22;10658;50.920;12.238;2023-01-13T02:55:25;9.60;99.90
21001;DHT22;10658;50.920;12.238;2023-01-13T02:59:29;9.60;99.90
21001;DHT22;10658;50.920;12.238;2023-01-13T03:03:31;9.60;99.90
21001;DHT22;10658;50.920;12.238;2023-01-13T03:12:25;9.50;99.90
21001;DHT22;10658;50.920;12.238;2023-01-13T03:20:46;9.50;99.90
21001;DHT22;10658;50.920;12.238;2023-01-13T03:24:54;9.50;99.90
21001;DHT22;10658;50.920;12.238;2023-01-13T03:29:23;9.50;99.90
21001;DHT22;10658;50.920;12.238;2023-01-13T03:33:27;9.50;99.90
21001;DHT22;10658;50.920;12.238;2023-01-13T03:37:33;9.40;99.90
21001;DHT22;10658;50.920;12.238;2023-01-13T03:41:50;9.30;99.90
21001;DHT22;10658;50.920;12.238;2023-01-13T03:45:59;9.30;99.90
21001;DHT22;10658;50.920;12.238;2023-01-13T03:50:19;9.30;99.90
21001;DHT22;10658;50.920;12.238;2023-01-13T03:54:24;9.20;99.90
21001;DHT22;10658;50.920;12.238;2023-01-13T03:58:39;9.20;99.90
21001;DHT22;10658;50.920;12.238;2023-01-13T04:03:06;9.20;99.90
21001;DHT22;10658;50.920;12.238;2023-01-13T04:11:44;9.10;99.90
21001;DHT22;10658;50.920;12.238;2023-01-13T04:15:48;9.10;99.90
21001;DHT22;10658;50.920;12.238;2023-01-13T04:19:50;9.20;99.90
21001;DHT22;10658;50.920;12.238;2023-01-13T04:23:51;9.20;99.90
21001;DHT22;10658;50.920;12.238;2023-01-13T04:27:54;9.20;99.90
21001;DHT22;10658;50.920;12.238;2023-01-13T04:31:55;9.10;99.90
21001;DHT22;10658;50.920;12.238;2023-01-13T04:36:22;9.10;99.90
21001;DHT22;10658;50.920;12.238;2023-01-13T04:40:27;9.10;99.90
21001;DHT22;10658;50.920;12.238;2023-01-13T04:44:28;9.00;99.90
21001;DHT22;10658;50.920;12.238;2023-01-13T04:48:31;9.00;99.90
21001;DHT22;10658;50.920;12.238;2023-01-13T04:52:32;8.90;99.90
21001;DHT22;10658;50.920;12.238;2023-01-13T04:56:34;8.80;99.90
21001;DHT22;10658;50.920;12.238;2023-01-13T05:00:36;8.90;99.90
21001;DHT22;10658;50.920;12.238;2023-01-13T05:04:38;8.90;99.90
21001;DHT22;10658;50.920;12.238;2023-01-13T05:08:41;9.00;99.90
21001;DHT22;10658;50.920;12.238;2023-01-13T05:12:58;9.00;99.90
21001;DHT22;10658;50.920;12.238;2023-01-13T05:17:23;9.00;99.90
21001;DHT22;10658;50.920;12.238;2023-01-13T05:21:24;9.00;99.90
21001;DHT22;10658;50.920;12.238;2023-01-13T05:25:46;8.90;99.90
21001;DHT22;10658;50.920;12.238;2023-01-13T05:29:48;9.10;99.90
21001;DHT22;10658;50.920;12.238;2023-01-13T05:34:22;9.10;99.90
21001;DHT22;10658;50.920;12.238;2023-01-13T05:38:30;9.10;99.90
21001;DHT22;10658;50.920;12.238;2023-01-13T05:42:34;9.10;99.90
21001;DHT22;10658;50.920;12.238;2023-01-13T05:46:55;9.10;99.90
21001;DHT22;10658;50.920;12.238;2023-01-13T05:50:56;9.20;99.90
21001;DHT22;10658;50.920;12.238;2023-01-13T05:54:57;9.20;99.90
21001;DHT22;10658;50.920;12.238;2023-01-13T05:58:58;9.20;99.90
21001;DHT22;10658;50.920;12.238;2023-01-13T06:02:59;9.20;99.90
21001;DHT22;10658;50.920;12.238;2023-01-13T06:07:00;9.30;99.90
21001;DHT22;10658;50.920;12.238;2023-01-13T06:11:01;9.30;99.90
21001;DHT22;10658;50.920;12.238;2023-01-13T06:15:02;9.40;99.90
21001;DHT22;10658;50.920;12.238;2023-01-13T06:19:03;9.50;99.90
21001;DHT22;10658;50.920;12.238;2023-01-13T06:23:09;9.50;99.90
21001;DHT22;10658;50.920;12.238;2023-01-13T06:27:11;9.50;99.90
21001;DHT22;10658;50.920;12.238;2023-01-13T06:31:12;9.50;99.90
21001;DHT22;10658;50.920;12.238;2023-01-13T06:35:17;9.40;99.90
21001;DHT22;10658;50.920;12.238;2023-01-13T06:39:34;9.50;99.90
21001;DHT22;10658;50.920;12.238;2023-01-13T06:43:38;9.60;99.90
21001;DHT22;10658;50.920;12.238;2023-01-13T06:52:25;9.60;99.90
21001;DHT22;10658;50.920;12.238;2023-01-13T06:56:27;9.60;99.90
21001;DHT22;10658;50.920;12.238;2023-01-13T07:00:32;9.70;99.90
21001;DHT22;10658;50.920;12.238;2023-01-13T07:04:36;9.70;99.90
21001;DHT22;10658;50.920;12.238;2023-01-13T07:08:37;9.70;99.90
21001;DHT22;10658;50.920;12.238;2023-01-13T07:12:39;9.70;99.90
21001;DHT22;10658;50.920;12.238;2023-01-13T07:16:59;9.70;99.90
21001;DHT22;10658;50.920;12.238;2023-01-13T07:25:05;9.70;99.90
21001;DHT22;10658;50.920;12.238;2023-01-13T07:29:06;9.60;99.90
21001;DHT22;10658;50.920;12.238;2023-01-13T07:33:07;9.70;99.90
21001;DHT22;10658;50.920;12.238;2023-01-13T07:37:08;9.70;99.90
21001;DHT22;10658;50.920;12.238;2023-01-13T07:41:12;9.70;99.90
21001;DHT22;10658;50.920;12.238;2023-01-13T07:45:31;9.70;99.90
21001;DHT22;10658;50.920;12.238;2023-01-13T07:49:32;9.70;99.90
21001;DHT22;10658;50.920;12.238;2023-01-13T07:53:34;9.60;99.90
21001;DHT22;10658;50.920;12.238;2023-01-13T07:57:36;9.30;99.90
21001;DHT22;10658;50.920;12.238;2023-01-13T08:01:37;8.60;99.90
21001;DHT22;10658;50.920;12.238;2023-01-13T08:05:38;8.30;99.90
21001;DHT22;10658;50.920;12.238;2023-01-13T08:09:40;8.20;99.90
21001;DHT22;10658;50.920;12.238;2023-01-13T08:13:41;8.10;99.90
21001;DHT22;10658;50.920;12.238;2023-01-13T08:17:44;8.10;99.90
21001;DHT22;10658;50.920;12.238;2023-01-13T08:21:45;7.90;99.90
21001;DHT22;10658;50.920;12.238;2023-01-13T08:25:46;7.90;99.90
21001;DHT22;10658;50.920;12.238;2023-01-13T08:29:47;7.90;99.90
21001;DHT22;10658;50.920;12.238;2023-01-13T08:33:48;7.90;99.90
21001;DHT22;10658;50.920;12.238;2023-01-13T08:37:49;7.90;99.90
21001;DHT22;10658;50.920;12.238;2023-01-13T08:41:50;7.90;99.90
21001;DHT22;10658;50.920;12.238;2023-01-13T08:46:00;7.80;99.90
21001;DHT22;10658;50.920;12.238;2023-01-13T08:50:04;7.60;99.90
21001;DHT22;10658;50.920;12.238;2023-01-13T08:54:05;7.60;99.90
21001;DHT22;10658;50.920;12.238;2023-01-13T08:58:06;7.60;99.90
21001;DHT22;10658;50.920;12.238;2023-01-13T09:02:15;7.70;99.90
21001;DHT22;10658;50.920;12.238;2023-01-13T09:06:17;7.70;99.90
21001;DHT22;10658;50.920;12.238;2023-01-13T09:10:18;7.70;99.90
21001;DHT22;10658;50.920;12.238;2023-01-13T09:14:21;7.70;99.90
21001;DHT22;10658;50.920;12.238;2023-01-13T09:18:22;7.70;99.90
21001;DHT22;10658;50.920;12.238;2023-01-13T09:22:23;7.70;99.90
21001;DHT22;10658;50.920;12.238;2023-01-13T09:26:26;7.70;99.90
21001;DHT22;10658;50.920;12.238;2023-01-13T09:30:43;7.80;99.90
21001;DHT22;10658;50.920;12.238;2023-01-13T09:35:11;7.70;99.90
21001;DHT22;10658;50.920;12.238;2023-01-13T09:39:12;7.80;99.90
21001;DHT22;10658;50.920;12.238;2023-01-13T09:47:53;7.70;99.90
21001;DHT22;10658;50.920;12.238;2023-01-13T09:52:15;7.60;99.90
21001;DHT22;10658;50.920;12.238;2023-01-13T09:56:19;7.60;99.90
21001;DHT22;10658;50.920;12.238;2023-01-13T10:00:28;7.60;99.90
21001;DHT22;10658;50.920;12.238;2023-01-13T10:04:29;7.60;99.90
21001;DHT22;10658;50.920;12.238;2023-01-13T10:08:37;7.70;99.90
21001;DHT22;10658;50.920;12.238;2023-01-13T10:12:38;7.70;99.90
21001;DHT22;10658;50.920;12.238;2023-01-13T10:17:17;7.70;99.90
21001;DHT22;10658;50.920;12.238;2023-01-13T10:30:21;7.80;99.90
21001;DHT22;10658;50.920;12.238;2023-01-13T10:34:23;7.90;99.90
21001;DHT22;10658;50.920;12.238;2023-01-13T10:42:28;8.00;99.90
21001;DHT22;10658;50.920;12.238;2023-01-13T10:46:32;8.00;99.90
21001;DHT22;10658;50.920;12.238;2023-01-13T10:50:34;8.00;99.90
21001;DHT22;10658;50.920;12.238;2023-01-13T10:54:50;8.00;99.90
21001;DHT22;10658;50.920;12.238;2023-01-13T10:58:51;8.10;99.90
21001;DHT22;10658;50.920;12.238;2023-01-13T11:03:22;8.20;99.90
21001;DHT22;10658;50.920;12.238;2023-01-13T11:07:36;8.40;99.90
21001;DHT22;10658;50.920;12.238;2023-01-13T11:11:39;8.40;99.90
21001;DHT22;10658;50.920;12.238;2023-01-13T11:15:46;8.40;99.90
21001;DHT22;10658;50.920;12.238;2023-01-13T11:19:56;8.50;99.90
21001;DHT22;10658;50.920;12.238;2023-01-13T11:32:39;8.90;99.90
21001;DHT22;10658;50.920;12.238;2023-01-13T11:36:50;8.80;99.90
21001;DHT22;10658;50.920;12.238;2023-01-13T11:40:52;8.80;99.90
21001;DHT22;10658;50.920;12.238;2023-01-13T11:49:34;8.60;99.90
21001;DHT22;10658;50.920;12.238;2023-01-13T11:53:45;8.70;99.90
21001;DHT22;10658;50.920;12.238;2023-01-13T11:58:13;8.80;99.90
21001;DHT22;10658;50.920;12.238;2023-01-13T12:02:43;9.00;99.90
21001;DHT22;10658;50.920;12.238;2023-01-13T12:06:56;9.00;99.90
21001;DHT22;10658;50.920;12.238;2023-01-13T12:19:43;9.00;99.90
21001;DHT22;10658;50.920;12.238;2023-01-13T12:24:16;9.00;99.90
21001;DHT22;10658;50.920;12.238;2023-01-13T12:29:10;9.00;99.90
21001;DHT22;10658;50.920;12.238;2023-01-13T12:38:45;9.00;99.90
21001;DHT22;10658;50.920;12.238;2023-01-13T12:43:25;9.00;99.90
21001;DHT22;10658;50.920;12.238;2023-01-13T12:47:51;9.10;99.90
21001;DHT22;10658;50.920;12.238;2023-01-13T13:00:56;9.30;99.90
21001;DHT22;10658;50.920;12.238;2023-01-13T13:09:43;9.20;99.90
21001;DHT22;10658;50.920;12.238;2023-01-13T13:13:51;9.20;99.90
21001;DHT22;10658;50.920;12.238;2023-01-13T13:18:38;9.10;99.90
21001;DHT22;10658;50.920;12.238;2023-01-13T13:22:49;8.90;99.90
21001;DHT22;10658;50.920;12.238;2023-01-13T13:36:51;9.20;99.90
21001;DHT22;10658;50.920;12.238;2023-01-13T13:40:57;9.20;99.90
21001;DHT22;10658;50.920;12.238;2023-01-13T13:45:20;9.20;99.90
21001;DHT22;10658;50.920;12.238;2023-01-13T13:49:49;9.20;99.90
21001;DHT22;10658;50.920;12.238;2023-01-13T13:53:58;9.00;99.90
21001;DHT22;10658;50.920;12.238;2023-01-13T13:58:15;8.90;99.90
21001;DHT22;10658;50.920;12.238;2023-01-13T14:02:31;8.80;99.90
21001;DHT22;10658;50.920;12.238;2023-01-13T14:06:35;8.80;99.90
21001;DHT22;10658;50.920;12.238;2023-01-13T14:10:40;8.80;99.90
21001;DHT22;10658;50.920;12.238;2023-01-13T14:14:54;8.70;99.90
21001;DHT22;10658;50.920;12.238;2023-01-13T14:18:58;8.60;99.90
21001;DHT22;10658;50.920;12.238;2023-01-13T14:22:59;8.50;99.90
21001;DHT22;10658;50.920;12.238;2023-01-13T14:27:16;8.40;99.90
21001;DHT22;10658;50.920;12.238;2023-01-13T14:31:19;8.40;99.90
21001;DHT22;10658;50.920;12.238;2023-01-13T14:35:22;8.30;99.90
21001;DHT22;10658;50.920;12.238;2023-01-13T14:39:25;8.30;99.90
21001;DHT22;10658;50.920;12.238;2023-01-13T14:43:26;8.20;99.90
21001;DHT22;10658;50.920;12.238;2023-01-13T14:47:28;8.10;99.90
21001;DHT22;10658;50.920;12.238;2023-01-13T14:51:31;8.10;99.90
21001;DHT22;10658;50.920;12.238;2023-01-13T14:55:34;8.00;99.90
21001;DHT22;10658;50.920;12.238;2023-01-13T14:59:46;7.90;99.90
21001;DHT22;10658;50.920;12.238;2023-01-13T15:03:48;7.90;99.90
21001;DHT22;10658;50.920;12.238;2023-01-13T15:08:05;7.70;99.90
21001;DHT22;10658;50.920;12.238;2023-01-13T15:12:37;7.60;99.90
21001;DHT22;10658;50.920;12.238;2023-01-13T15:16:40;7.50;99.90
21001;DHT22;10658;50.920;12.238;2023-01-13T15:20:43;7.50;99.90
21001;DHT22;10658;50.920;12.238;2023-01-13T15:24:45;7.40;99.90
21001;DHT22;10658;50.920;12.238;2023-01-13T15:28:47;7.40;99.90
21001;DHT22;10658;50.920;12.238;2023-01-13T15:32:49;7.30;99.90
21001;DHT22;10658;50.920;12.238;2023-01-13T15:36:51;7.20;99.90
21001;DHT22;10658;50.920;12.238;2023-01-13T15:40:54;7.20;99.90
21001;DHT22;10658;50.920;12.238;2023-01-13T15:44:55;7.10;99.90
21001;DHT22;10658;50.920;12.238;2023-01-13T15:53:26;7.00;99.90
21001;DHT22;10658;50.920;12.238;2023-01-13T15:57:29;6.90;99.90
21001;DHT22;10658;50.920;12.238;2023-01-13T16:01:31;6.80;99.90
21001;DHT22;10658;50.920;12.238;2023-01-13T16:05:32;6.90;99.90
21001;DHT22;10658;50.920;12.238;2023-01-13T16:09:34;6.80;99.90
21001;DHT22;10658;50.920;12.238;2023-01-13T16:13:37;6.80;99.90
21001;DHT22;10658;50.920;12.238;2023-01-13T16:17:38;6.70;99.90
21001;DHT22;10658;50.920;12.238;2023-01-13T16:21:40;6.60;99.90
21001;DHT22;10658;50.920;12.238;2023-01-13T16:25:41;6.70;99.90
21001;DHT22;10658;50.920;12.238;2023-01-13T16:29:45;6.70;99.90
21001;DHT22;10658;50.920;12.238;2023-01-13T16:33:46;6.70;99.90
21001;DHT22;10658;50.920;12.238;2023-01-13T16:37:48;6.70;99.90
21001;DHT22;10658;50.920;12.238;2023-01-13T16:41:49;6.70;99.90
21001;DHT22;10658;50.920;12.238;2023-01-13T16:45:51;6.70;99.90
21001;DHT22;10658;50.920;12.238;2023-01-13T16:49:52;6.70;99.90
21001;DHT22;10658;50.920;12.238;2023-01-13T16:53:53;6.80;99.90
21001;DHT22;10658;50.920;12.238;2023-01-13T16:57:54;6.80;99.90
21001;DHT22;10658;50.920;12.238;2023-01-13T17:01:55;6.70;99.90
21001;DHT22;10658;50.920;12.238;2023-01-13T17:05:56;6.70;99.90
21001;DHT22;10658;50.920;12.238;2023-01-13T17:10:01;6.60;99.90
21001;DHT22;10658;50.920;12.238;2023-01-13T17:14:02;6.60;99.90
21001;DHT22;10658;50.920;12.238;2023-01-13T17:18:03;6.50;99.90
21001;DHT22;10658;50.920;12.238;2023-01-13T17:22:04;6.40;99.90
21001;DHT22;10658;50.920;12.238;2023-01-13T17:26:05;6.40;99.90
21001;DHT22;10658;50.920;12.238;2023-01-13T17:30:08;6.40;99.90
21001;DHT22;10658;50.920;12.238;2023-01-13T17:34:11;6.40;99.90
21001;DHT22;10658;50.920;12.238;2023-01-13T17:38:12;6.40;99.90
21001;DHT22;10658;50.920;12.238;2023-01-13T17:42:14;6.40;99.90
21001;DHT22;10658;50.920;12.238;2023-01-13T17:46:15;6.50;99.90
21001;DHT22;10658;50.920;12.238;2023-01-13T17:50:18;6.60;99.90
21001;DHT22;10658;50.920;12.238;2023-01-13T17:54:20;6.60;99.90
21001;DHT22;10658;50.920;12.238;2023-01-13T17:58:21;6.70;99.90
21001;DHT22;10658;50.920;12.238;2023-01-13T18:02:23;6.70;99.90
21001;DHT22;10658;50.920;12.238;2023-01-13T18:06:24;6.70;99.90
21001;DHT22;10658;50.920;12.238;2023-01-13T18:10:25;6.80;99.90
21001;DHT22;10658;50.920;12.238;2023-01-13T18:14:26;6.80;99.90
21001;DHT22;10658;50.920;12.238;2023-01-13T18:18:28;6.80;99.90
21001;DHT22;10658;50.920;12.238;2023-01-13T18:22:28;6.90;99.90
21001;DHT22;10658;50.920;12.238;2023-01-13T18:26:48;6.90;99.90
21001;DHT22;10658;50.920;12.238;2023-01-13T18:31:08;6.90;99.90
21001;DHT22;10658;50.920;12.238;2023-01-13T18:35:09;7.00;99.90
21001;DHT22;10658;50.920;12.238;2023-01-13T18:39:10;7.00;99.90
21001;DHT22;10658;50.920;12.238;2023-01-13T18:43:11;7.20;99.90
21001;DHT22;10658;50.920;12.238;2023-01-13T18:47:13;7.20;99.90
21001;DHT22;10658;50.920;12.238;2023-01-13T18:51:14;7.20;99.90
21001;DHT22;10658;50.920;12.238;2023-01-13T18:55:15;7.30;99.90
21001;DHT22;10658;50.920;12.238;2023-01-13T18:59:16;7.30;99.90
21001;DHT22;10658;50.920;12.238;2023-01-13T19:03:17;7.30;99.90
21001;DHT22;10658;50.920;12.238;2023-01-13T19:07:22;7.20;99.90
21001;DHT22;10658;50.920;12.238;2023-01-13T19:11:26;7.20;99.90
21001;DHT22;10658;50.920;12.238;2023-01-13T19:15:30;7.10;99.90
21001;DHT22;10658;50.920;12.238;2023-01-13T19:19:32;7.10;99.90
21001;DHT22;10658;50.920;12.238;2023-01-13T19:23:34;7.00;99.90
21001;DHT22;10658;50.920;12.238;2023-01-13T19:27:36;7.00;99.90
21001;DHT22;10658;50.920;12.238;2023-01-13T19:31:40;6.90;99.90
21001;DHT22;10658;50.920;12.238;2023-01-13T19:35:41;6.90;99.90
21001;DHT22;10658;50.920;12.238;2023-01-13T19:39:43;6.90;99.90
21001;DHT22;10658;50.920;12.238;2023-01-13T19:43:44;6.90;99.90
21001;DHT22;10658;50.920;12.238;2023-01-13T19:48:04;7.00;99.90
21001;DHT22;10658;50.920;12.238;2023-01-13T19:52:06;7.10;99.90
21001;DHT22;10658;50.920;12.238;2023-01-13T19:56:12;7.20;99.90
21001;DHT22;10658;50.920;12.238;2023-01-13T20:00:14;7.20;99.90
21001;DHT22;10658;50.920;12.238;2023-01-13T20:04:22;7.20;99.90
21001;DHT22;10658;50.920;12.238;2023-01-13T20:08:30;7.20;99.90
21001;DHT22;10658;50.920;12.238;2023-01-13T20:12:33;7.20;99.90
21001;DHT22;10658;50.920;12.238;2023-01-13T20:16:36;7.20;99.90
21001;DHT22;10658;50.920;12.238;2023-01-13T20:20:39;7.20;99.90
21001;DHT22;10658;50.920;12.238;2023-01-13T20:24:44;7.10;99.90
21001;DHT22;10658;50.920;12.238;2023-01-13T20:28:47;7.00;99.90
21001;DHT22;10658;50.920;12.238;2023-01-13T20:32:49;7.00;99.90
21001;DHT22;10658;50.920;12.238;2023-01-13T20:36:50;7.00;99.90
21001;DHT22;10658;50.920;12.238;2023-01-13T20:40:59;6.90;99.90
21001;DHT22;10658;50.920;12.238;2023-01-13T20:45:01;6.90;99.90
21001;DHT22;10658;50.920;12.238;2023-01-13T20:49:02;7.00;99.90
21001;DHT22;10658;50.920;12.238;2023-01-13T20:53:04;7.00;99.90
21001;DHT22;10658;50.920;12.238;2023-01-13T20:57:08;7.00;99.90
21001;DHT22;10658;50.920;12.238;2023-01-13T21:01:09;7.00;99.90
21001;DHT22;10658;50.920;12.238;2023-01-13T21:05:10;7.00;99.90
21001;DHT22;10658;50.920;12.238;2023-01-13T21:09:11;7.00;99.90
21001;DHT22;10658;50.920;12.238;2023-01-13T21:13:12;7.10;99.90
21001;DHT22;10658;50.920;12.238;2023-01-13T21:17:32;7.10;99.90
21001;DHT22;10658;50.920;12.238;2023-01-13T21:21:52;7.10;99.90
21001;DHT22;10658;50.920;12.238;2023-01-13T21:25:59;7.10;99.90
21001;DHT22;10658;50.920;12.238;2023-01-13T21:30:00;7.10;99.90
21001;DHT22;10658;50.920;12.238;2023-01-13T21:34:01;7.10;99.90
21001;DHT22;10658;50.920;12.238;2023-01-13T21:38:05;7.10;99.90
21001;DHT22;10658;50.920;12.238;2023-01-13T21:42:06;7.10;99.90
21001;DHT22;10658;50.920;12.238;2023-01-13T21:46:26;7.10;99.90
21001;DHT22;10658;50.920;12.238;2023-01-13T21:50:45;7.10;99.90
21001;DHT22;10658;50.920;12.238;2023-01-13T21:54:46;7.10;99.90
21001;DHT22;10658;50.920;12.238;2023-01-13T21:59:06;7.10;99.90
21001;DHT22;10658;50.920;12.238;2023-01-13T22:03:16;7.10;99.90
21001;DHT22;10658;50.920;12.238;2023-01-13T22:07:19;7.20;99.90
21001;DHT22;10658;50.920;12.238;2023-01-13T22:11:20;7.20;99.90
21001;DHT22;10658;50.920;12.238;2023-01-13T22:15:23;7.10;99.90
21001;DHT22;10658;50.920;12.238;2023-01-13T22:19:28;7.00;99.90
21001;DHT22;10658;50.920;12.238;2023-01-13T22:23:31;7.00;99.90
21001;DHT22;10658;50.920;12.238;2023-01-13T22:27:33;6.90;99.90
21001;DHT22;10658;50.920;12.238;2023-01-13T22:31:40;6.90;99.90
21001;DHT22;10658;50.920;12.238;2023-01-13T22:35:42;6.70;99.90
21001;DHT22;10658;50.920;12.238;2023-01-13T22:39:43;6.80;99.90
21001;DHT22;10658;50.920;12.238;2023-01-13T22:43:44;6.70;99.90
21001;DHT22;10658;50.920;12.238;2023-01-13T22:47:45;6.60;99.90
21001;DHT22;10658;50.920;12.238;2023-01-13T22:51:46;6.60;99.90
21001;DHT22;10658;50.920;12.238;2023-01-13T22:55:57;6.50;99.90
21001;DHT22;10658;50.920;12.238;2023-01-13T22:59:59;6.50;99.90
21001;DHT22;10658;50.920;12.238;2023-01-13T23:04:01;6.60;99.90
21001;DHT22;10658;50.920;12.238;2023-01-13T23:08:02;6.60;99.90
21001;DHT22;10658;50.920;12.238;2023-01-13T23:12:04;6.60;99.90
21001;DHT22;10658;50.920;12.238;2023-01-13T23:16:08;6.60;99.90
21001;DHT22;10658;50.920;12.238;2023-01-13T23:20:10;6.60;99.90
21001;DHT22;10658;50.920;12.238;2023-01-13T23:24:11;6.60;99.90
21001;DHT22;10658;50.920;12.238;2023-01-13T23:28:13;6.60;99.90
21001;DHT22;10658;50.920;12.238;2023-01-13T23:32:14;6.60;99.90
21001;DHT22;10658;50.920;12.238;2023-01-13T23:36:26;6.60;99.90
21001;DHT22;10658;50.920;12.238;2023-01-13T23:40:27;6.70;99.90
21001;DHT22;10658;50.920;12.238;2023-01-13T23:44:28;6.60;99.90
21001;DHT22;10658;50.920;12.238;2023-01-13T23:48:29;6.60;99.90
21001;DHT22;10658;50.920;12.238;2023-01-13T23:52:30;6.60;99.90
21001;DHT22;10658;50.920;12.238;2023-01-13T23:56:31;6.60;99.90
